Terminal Aerodrome Forecast
Issued by NWS

Home | Current Version | Previous Version | Text Only | Print | Product List | Glossary On
Versions: 1 2 3 4 5 6 7 8 9 10 11 12 13 14 15 16 17
000
FTUS46 KSGX 201148
TAFSNA
TAF
KSNA 201148Z 2012/2112 15007KT 6SM -SHRA BR SCT010 OVC025
     FM201600 18015G30KT 4SM SHRA BR SCT010 OVC020
      TEMPO 2020/2022 20025G40KT 1/2SM +TSRA FG OVC008CB
     FM210000 23015G30KT 3SM SHRA BR BKN015
     FM210200 25010G20KT 6SM -SHRA BR BKN025
     FM210500 25010G20KT P6SM VCSH SCT025 OVC150=

USA.gov is the U.S. government's official web portal to all federal, state and local government web resources and services.